AF1 KMEM-KMEM
Flight info
| Callsign | AF1 |
|---|---|
| Flight time | 0h 16m |
| Altitude | 23000 |
| Route | GOETZ7 DIYAB CHSNE CHSNE3 |
| Aircraft | B748/H-SDE3FGHIM1M2RWXY/LB1 |
Departure
| Time | 2026-05-06 02:21 |
|---|---|
| Airport | Memphis International Airport (KMEM) |
Arrival
| Time | 2026-05-06 02:37 |
|---|---|
| Airport | Memphis International Airport (KMEM) |
| Time | Latitude | Longitude | Altitude | Speed | Heading |
|---|---|---|---|---|---|
| 2026-05-06 02:21 | 34.97948 | -89.96084 | 2306 ft | 218 kts | 165° |
| 2026-05-06 02:21 | 34.96522 | -89.95724 | 2645 ft | 204 kts | 190° |
| 2026-05-06 02:21 | 34.95249 | -89.96386 | 2638 ft | 210 kts | 213° |
| 2026-05-06 02:21 | 34.94190 | -89.97685 | 2626 ft | 225 kts | 235° |
| 2026-05-06 02:22 | 34.93732 | -89.99575 | 2724 ft | 244 kts | 262° |
| 2026-05-06 02:22 | 34.93674 | -90.01709 | 2577 ft | 259 kts | 261° |
| 2026-05-06 02:22 | 34.93681 | -90.03917 | 2875 ft | 257 kts | 277° |
| 2026-05-06 02:22 | 34.94667 | -90.05720 | 3086 ft | 274 kts | 317° |
| 2026-05-06 02:23 | 34.96534 | -90.06505 | 2860 ft | 299 kts | 355° |
| 2026-05-06 02:23 | 34.98573 | -90.06357 | 2932 ft | 296 kts | 1° |
| 2026-05-06 02:23 | 35.00686 | -90.06026 | 2657 ft | 309 kts | 7° |
| 2026-05-06 02:23 | 35.02617 | -90.05067 | 3035 ft | 292 kts | 25° |
| 2026-05-06 02:24 | 35.04562 | -90.04516 | 2782 ft | 292 kts | 359° |
| 2026-05-06 02:24 | 35.06625 | -90.04300 | 2691 ft | 298 kts | 0° |
| 2026-05-06 02:24 | 35.08653 | -90.03946 | 2780 ft | 298 kts | 17° |
| 2026-05-06 02:24 | 35.10615 | -90.03227 | 2547 ft | 300 kts | 4° |
| 2026-05-06 02:25 | 35.12762 | -90.03083 | 2121 ft | 315 kts | 358° |
| 2026-05-06 02:25 | 35.14966 | -90.03020 | 1993 ft | 318 kts | 358° |
| 2026-05-06 02:25 | 35.17175 | -90.03120 | 1926 ft | 315 kts | 351° |
| 2026-05-06 02:25 | 35.19308 | -90.03214 | 2180 ft | 307 kts | 356° |
| 2026-05-06 02:26 | 35.21392 | -90.02744 | 2360 ft | 305 kts | 23° |
| 2026-05-06 02:26 | 35.23084 | -90.01260 | 2519 ft | 296 kts | 52° |
| 2026-05-06 02:26 | 35.24034 | -89.99152 | 2620 ft | 273 kts | 83° |
| 2026-05-06 02:26 | 35.24011 | -89.96970 | 2453 ft | 246 kts | 118° |
| 2026-05-06 02:27 | 35.23137 | -89.95379 | 2408 ft | 208 kts | 149° |
| 2026-05-06 02:27 | 35.22109 | -89.94307 | 2269 ft | 190 kts | 142° |
| 2026-05-06 02:27 | 35.21506 | -89.92819 | 1997 ft | 202 kts | 114° |
| 2026-05-06 02:27 | 35.21536 | -89.91135 | 1957 ft | 202 kts | 81° |
| 2026-05-06 02:28 | 35.22379 | -89.89743 | 1712 ft | 210 kts | 38° |
| 2026-05-06 02:28 | 35.23671 | -89.89127 | 1472 ft | 200 kts | 7° |
| 2026-05-06 02:28 | 35.25019 | -89.89081 | 1454 ft | 193 kts | 352° |
| 2026-05-06 02:28 | 35.26358 | -89.89132 | 1962 ft | 191 kts | 351° |
| 2026-05-06 02:29 | 35.27667 | -89.89247 | 2108 ft | 183 kts | 342° |
| 2026-05-06 02:29 | 35.28825 | -89.89789 | 1948 ft | 182 kts | 315° |
| 2026-05-06 02:29 | 35.29566 | -89.90998 | 2284 ft | 166 kts | 278° |
| 2026-05-06 02:29 | 35.29591 | -89.92229 | 2427 ft | 135 kts | 247° |
| 2026-05-06 02:30 | 35.29237 | -89.93278 | 2310 ft | 133 kts | 238° |
| 2026-05-06 02:30 | 35.28843 | -89.94309 | 2232 ft | 134 kts | 240° |
| 2026-05-06 02:30 | 35.28589 | -89.95424 | 2096 ft | 142 kts | 250° |
| 2026-05-06 02:30 | 35.28442 | -89.96646 | 1963 ft | 140 kts | 246° |
| 2026-05-06 02:31 | 35.28004 | -89.97694 | 1742 ft | 143 kts | 224° |
| 2026-05-06 02:31 | 35.27148 | -89.98230 | 1684 ft | 137 kts | 190° |
| 2026-05-06 02:31 | 35.26207 | -89.98139 | 1558 ft | 141 kts | 178° |
| 2026-05-06 02:31 | 35.25229 | -89.97955 | 1438 ft | 142 kts | 177° |
| 2026-05-06 02:32 | 35.24242 | -89.97769 | 1232 ft | 147 kts | 178° |
| 2026-05-06 02:32 | 35.23161 | -89.97634 | 1184 ft | 156 kts | 177° |
| 2026-05-06 02:32 | 35.22108 | -89.97547 | 1136 ft | 149 kts | 182° |
| 2026-05-06 02:32 | 35.21052 | -89.97528 | 1314 ft | 149 kts | 182° |
| 2026-05-06 02:33 | 35.20122 | -89.97502 | 1621 ft | 126 kts | 182° |
| 2026-05-06 02:33 | 35.19528 | -89.97458 | 1555 ft | 132 kts | 181° |
| 2026-05-06 02:33 | 35.17390 | -89.97435 | 1340 ft | 150 kts | 183° |
| 2026-05-06 02:34 | 35.16395 | -89.97421 | 1405 ft | 139 kts | 182° |
| 2026-05-06 02:34 | 35.15425 | -89.97444 | 1313 ft | 139 kts | 184° |
| 2026-05-06 02:34 | 35.14438 | -89.97444 | 1213 ft | 149 kts | 180° |
| 2026-05-06 02:34 | 35.13360 | -89.97378 | 1168 ft | 154 kts | 184° |
| 2026-05-06 02:35 | 35.12267 | -89.97407 | 1219 ft | 159 kts | 186° |
| 2026-05-06 02:35 | 35.11206 | -89.97462 | 1242 ft | 147 kts | 184° |
| 2026-05-06 02:35 | 35.10182 | -89.97447 | 1133 ft | 148 kts | 180° |
| 2026-05-06 02:35 | 35.09125 | -89.97424 | 985 ft | 162 kts | 179° |
| 2026-05-06 02:36 | 35.07961 | -89.97348 | 983 ft | 166 kts | 178° |
| 2026-05-06 02:36 | 35.06857 | -89.97337 | 700 ft | 154 kts | 181° |
| 2026-05-06 02:36 | 35.05769 | -89.97309 | 524 ft | 159 kts | 178° |
| 2026-05-06 02:36 | 35.04691 | -89.97296 | 332 ft | 147 kts | 180° |
| 2026-05-06 02:37 | 35.03890 | -89.97283 | 319 ft | 88 kts | 177° |
| 2026-05-06 02:37 | 35.03419 | -89.97270 | 316 ft | 43 kts | 184° |
| 2026-05-06 02:37 | 35.03185 | -89.97269 | 313 ft | 32 kts | 177° |
| 2026-05-06 02:37 | 35.02828 | -89.97257 | 308 ft | 54 kts | 179° |
| 2026-05-06 02:38 | 35.02573 | -89.97197 | 305 ft | 15 kts | 129° |
| 2026-05-06 02:38 | 35.02564 | -89.97138 | 305 ft | 2 kts | 83° |
| 2026-05-06 02:38 | 35.02569 | -89.97112 | 306 ft | 1 kts | 73° |
| 2026-05-06 02:38 | 35.02572 | -89.97103 | 303 ft | 7 kts | 73° |
| 2026-05-06 02:39 | 35.02608 | -89.97046 | 308 ft | 5 kts | 33° |
| 2026-05-06 02:39 | 35.02623 | -89.97039 | 307 ft | 4 kts | 16° |
| 2026-05-06 02:39 | 35.02689 | -89.97028 | 305 ft | 15 kts | 3° |
| 2026-05-06 02:39 | 35.02812 | -89.97043 | 308 ft | 20 kts | 349° |
| 2026-05-06 02:40 | 35.02958 | -89.97071 | 309 ft | 23 kts | 354° |
| 2026-05-06 02:40 | 35.03073 | -89.97083 | 311 ft | 15 kts | 2° |
| 2026-05-06 02:40 | 35.03170 | -89.97070 | 315 ft | 13 kts | 2° |
| 2026-05-06 02:40 | 35.03270 | -89.97076 | 315 ft | 16 kts | 358° |
| 2026-05-06 02:41 | 35.03396 | -89.97081 | 317 ft | 20 kts | 357° |
| 2026-05-06 02:41 | 35.03553 | -89.97089 | 317 ft | 24 kts | 357° |
| 2026-05-06 02:41 | 35.03724 | -89.97085 | 320 ft | 21 kts | 6° |
| 2026-05-06 02:41 | 35.03788 | -89.97036 | 317 ft | 8 kts | 55° |
| 2026-05-06 02:42 | 35.03793 | -89.96928 | 317 ft | 19 kts | 112° |
| 2026-05-06 02:42 | 35.03671 | -89.96849 | 317 ft | 23 kts | 173° |
| 2026-05-06 02:42 | 35.03488 | -89.96848 | 316 ft | 24 kts | 180° |
| 2026-05-06 02:42 | 35.03384 | -89.96798 | 314 ft | 12 kts | 114° |
| 2026-05-06 02:43 | 35.03392 | -89.96693 | 316 ft | 18 kts | 87° |
| 2026-05-06 02:43 | 35.03388 | -89.96669 | 316 ft | 0 kts | 117° |
| 2026-05-06 02:43 | 35.03382 | -89.96662 | 315 ft | 5 kts | 129° |
| 2026-05-06 02:43 | 35.03304 | -89.96607 | 315 ft | 8 kts | 172° |
| 2026-05-06 02:44 | 35.03302 | -89.96607 | 315 ft | 0 kts | 175° |